HECA

Cairo International Airport

Cairo, Egypt
METAR HECA 230230Z 03004KT 6000 NSC 28/15 Q1014 NOSIG
Observed Flight Rules
May-23 @ 02:30 UTC (26 minutes ago) Marginal Visual Flight Rules
Wind Visibility Clouds
30° at 4 knots 6,003 meters
  • Clear skies
Temperatures Readings
Current 28°C / 82°F
Dewpoint 15°C / 59°F
Humidity 45%
Altimeter 29.94" Hg
Pressure 1014 hPa
Elevation 74
METAR HECA 230230Z 03004KT 6000 NSC 28/15 Q1014 NOSIG
Observed Flight Rules
May-23 @ 02:30 UTC
(26 minutes ago)
MVFR
Wind Visibility
30° at 4 knots 6,003 meters
Clouds
  • Clear skies
Temperature Dewpoint
28°C / 82°F 15°C / 59°F
Humidity Altimeter Pressure
45% 29.94" Hg 1014 hPa